createdAt,value
2022-09-30T00:03:59.275Z,11.38
2022-09-30T00:09:03.588Z,15.65
2022-09-30T00:14:13.455Z,15.95
2022-09-30T00:19:18.793Z,13.98
2022-09-30T00:24:21.385Z,17.38
2022-09-30T00:29:24.733Z,20.00
2022-09-30T00:34:27.225Z,17.35
2022-09-30T00:39:37.663Z,23.88
2022-09-30T00:44:52.088Z,17.92
2022-09-30T00:49:58.657Z,13.03
2022-09-30T00:55:08.327Z,15.68
2022-09-30T01:00:11.012Z,16.60
2022-09-30T01:05:13.737Z,17.53
2022-09-30T01:10:16.343Z,15.90
2022-09-30T01:15:24.683Z,15.52
2022-09-30T01:21:13.541Z,13.30
2022-09-30T01:26:49.447Z,12.68
2022-09-30T01:32:23.391Z,21.92
2022-09-30T01:37:59.910Z,16.03
2022-09-30T01:43:17.793Z,17.17
2022-09-30T01:48:56.571Z,13.02
2022-09-30T01:54:10.058Z,15.40
2022-09-30T01:59:25.600Z,17.27
2022-09-30T02:04:43.565Z,16.92
2022-09-30T02:10:01.793Z,10.82
2022-09-30T02:15:19.929Z,18.38
2022-09-30T02:20:35.778Z,11.90
2022-09-30T02:26:30.004Z,16.53
2022-09-30T02:31:35.929Z,13.60
2022-09-30T02:36:44.992Z,14.43
2022-09-30T02:41:57.823Z,13.18
2022-09-30T02:47:15.670Z,15.57
2022-09-30T02:53:05.288Z,16.00
2022-09-30T02:58:20.058Z,12.50
2022-09-30T03:03:28.234Z,18.92
2022-09-30T03:08:30.873Z,15.20
2022-09-30T03:13:38.254Z,15.93
2022-09-30T03:19:24.758Z,15.52
2022-09-30T03:24:50.338Z,16.42
2022-09-30T03:30:09.731Z,17.42
2022-09-30T03:35:15.059Z,16.47
2022-09-30T03:40:28.653Z,10.48
2022-09-30T03:45:51.226Z,15.90
2022-09-30T03:50:55.050Z,16.27
2022-09-30T03:55:57.493Z,21.50
2022-09-30T04:01:00.028Z,15.77
2022-09-30T04:06:03.334Z,22.38
2022-09-30T04:11:06.418Z,18.80
2022-09-30T04:16:10.195Z,10.70
2022-09-30T04:21:15.313Z,14.75
2022-09-30T04:26:20.190Z,15.03
2022-09-30T04:31:32.864Z,20.13
2022-09-30T04:36:36.392Z,16.17
2022-09-30T04:41:43.296Z,11.97
2022-09-30T04:46:45.749Z,11.27
2022-09-30T04:51:48.281Z,19.37
2022-09-30T04:56:50.886Z,21.08
2022-09-30T05:01:53.652Z,20.98
2022-09-30T05:07:14.951Z,24.88
2022-09-30T05:12:17.497Z,25.30
2022-09-30T05:17:20.123Z,26.43
2022-09-30T05:22:24.827Z,27.53
2022-09-30T05:27:32.075Z,24.07
2022-09-30T05:32:34.801Z,23.40
2022-09-30T05:38:41.681Z,28.55
2022-09-30T05:44:02.165Z,22.15
2022-09-30T05:49:04.702Z,24.77
2022-09-30T05:54:07.409Z,28.00
2022-09-30T05:59:15.509Z,33.60
2022-09-30T06:04:19.764Z,31.50
2022-09-30T06:09:24.660Z,19.63
2022-09-30T06:14:28.916Z,23.13
2022-09-30T06:19:35.808Z,15.38
2022-09-30T06:24:41.189Z,19.00
2022-09-30T06:29:48.944Z,23.92
2022-09-30T06:34:55.814Z,23.65
2022-09-30T06:39:58.373Z,24.30
2022-09-30T06:45:01.233Z,21.25
2022-09-30T06:50:04.396Z,21.77
2022-09-30T06:55:17.226Z,19.55
2022-09-30T07:00:22.655Z,20.50
2022-09-30T07:05:26.548Z,18.47
2022-09-30T07:10:34.835Z,16.70
2022-09-30T07:15:38.232Z,15.05
2022-09-30T08:22:35.485Z,16.67
2022-09-30T08:27:40.157Z,18.05
2022-09-30T08:32:44.271Z,13.68
2022-09-30T08:37:46.963Z,24.30
2022-09-30T08:43:09.288Z,14.63
2022-09-30T08:48:53.621Z,12.40
2022-09-30T08:54:03.052Z,12.73
2022-09-30T08:59:15.869Z,13.27
2022-09-30T09:04:20.820Z,14.77
2022-09-30T09:09:26.348Z,11.75
2022-09-30T09:14:59.802Z,14.95
2022-09-30T09:20:13.508Z,12.33
2022-09-30T09:25:27.062Z,11.93
2022-09-30T09:30:45.038Z,11.93
2022-09-30T09:36:21.564Z,14.98
2022-09-30T09:41:42.389Z,10.43
2022-09-30T09:46:50.229Z,13.27
2022-09-30T09:52:21.565Z,12.30
2022-09-30T09:57:32.481Z,9.02
2022-09-30T10:02:35.121Z,12.98
2022-09-30T10:07:38.483Z,12.83
2022-09-30T10:12:41.983Z,11.27
2022-09-30T10:17:53.830Z,12.23
2022-09-30T10:23:10.560Z,10.60
2022-09-30T10:28:31.692Z,14.20
2022-09-30T10:33:42.532Z,14.67
2022-09-30T10:39:00.007Z,13.37
2022-09-30T10:44:15.771Z,14.43
2022-09-30T10:49:47.105Z,16.92
2022-09-30T10:55:02.284Z,19.52
2022-09-30T11:00:17.451Z,12.77
2022-09-30T11:05:47.249Z,15.07
2022-09-30T11:11:10.629Z,13.37
2022-09-30T11:16:27.375Z,14.52
2022-09-30T11:21:42.866Z,14.88
2022-09-30T11:27:11.944Z,11.00
2022-09-30T11:32:35.808Z,11.93
2022-09-30T11:38:05.779Z,17.60
2022-09-30T11:43:34.808Z,7.97
2022-09-30T11:48:51.004Z,6.00
2022-09-30T11:53:59.378Z,6.63
2022-09-30T11:59:14.072Z,8.63
2022-09-30T12:04:32.250Z,9.63
2022-09-30T12:09:40.865Z,9.40
2022-09-30T12:14:51.853Z,9.07
2022-09-30T12:20:03.092Z,12.27
2022-09-30T12:25:18.324Z,11.15
2022-09-30T12:30:34.293Z,14.98
2022-09-30T12:35:39.469Z,12.23
2022-09-30T12:41:02.775Z,10.27
2022-09-30T12:52:33.920Z,12.48
2022-09-30T12:57:43.604Z,9.95
2022-09-30T13:02:55.793Z,12.25
2022-09-30T13:08:04.950Z,13.77
2022-09-30T13:13:10.260Z,10.25
2022-09-30T13:18:26.918Z,8.70
2022-09-30T13:23:45.985Z,7.03
2022-09-30T13:28:50.738Z,10.77
2022-09-30T13:34:02.115Z,6.18
2022-09-30T13:39:25.331Z,6.20
2022-09-30T13:44:59.654Z,7.63
2022-09-30T13:50:27.860Z,4.70
2022-09-30T13:55:50.109Z,6.10
2022-09-30T14:01:01.670Z,6.07
2022-09-30T14:06:10.457Z,8.50
2022-09-30T14:11:37.468Z,6.90
2022-09-30T14:17:09.074Z,6.93
2022-09-30T14:22:15.539Z,5.90
2022-09-30T14:27:20.024Z,6.20
2022-09-30T14:32:37.481Z,5.50
2022-09-30T14:37:48.909Z,5.67
2022-09-30T14:42:58.302Z,7.65
2022-09-30T14:48:07.410Z,6.68
2022-09-30T14:53:50.199Z,5.38
2022-09-30T14:58:53.130Z,8.85
2022-09-30T15:04:03.569Z,8.23
2022-09-30T15:09:16.173Z,10.75
2022-09-30T15:14:26.671Z,10.27
2022-09-30T15:19:43.222Z,7.07
2022-09-30T15:24:47.866Z,10.90
2022-09-30T15:30:04.134Z,8.05
2022-09-30T15:35:17.177Z,11.63
2022-09-30T15:40:43.951Z,8.48
2022-09-30T15:45:48.700Z,12.57
2022-09-30T15:51:01.659Z,10.40
2022-09-30T15:56:22.360Z,10.93
2022-09-30T16:01:36.034Z,9.02
2022-09-30T16:06:52.818Z,7.78
2022-09-30T16:12:18.340Z,8.32
2022-09-30T16:17:38.793Z,8.52
2022-09-30T16:22:41.548Z,9.73
2022-09-30T16:27:45.368Z,6.20
2022-09-30T16:32:52.076Z,6.80
2022-09-30T16:38:12.410Z,6.68
2022-09-30T16:43:15.084Z,9.82
2022-09-30T16:48:28.154Z,7.28
2022-09-30T16:53:34.167Z,8.23
2022-09-30T16:58:36.677Z,12.90
2022-09-30T17:03:42.009Z,11.55
2022-09-30T17:08:45.536Z,7.47
2022-09-30T17:13:48.046Z,9.25
2022-09-30T17:18:54.332Z,7.22
2022-09-30T17:23:58.078Z,10.80
2022-09-30T17:29:21.242Z,11.70
2022-09-30T17:34:28.106Z,12.68
2022-09-30T17:39:30.660Z,9.95
2022-09-30T17:44:33.451Z,11.37
2022-09-30T17:54:53.358Z,14.20
2022-09-30T17:59:58.966Z,14.25
2022-09-30T18:05:01.697Z,13.05
2022-09-30T18:10:04.680Z,10.50
2022-09-30T18:15:11.660Z,12.48
2022-09-30T18:20:14.802Z,10.27
2022-09-30T18:25:20.830Z,14.73
2022-09-30T18:30:24.427Z,17.20
2022-09-30T18:35:27.352Z,18.23
2022-09-30T18:40:31.842Z,14.50
2022-09-30T18:45:40.879Z,12.67
2022-09-30T18:50:46.690Z,16.92
2022-09-30T18:55:49.325Z,18.67
2022-09-30T19:00:52.026Z,22.03
2022-09-30T19:05:58.960Z,13.23
2022-09-30T19:11:18.263Z,14.33
2022-09-30T19:16:36.578Z,17.63
2022-09-30T19:21:41.373Z,13.82
2022-09-30T19:26:44.056Z,14.82
2022-09-30T19:31:46.780Z,14.40
2022-09-30T19:36:52.807Z,13.93
2022-09-30T19:42:01.700Z,16.45
2022-09-30T19:47:16.707Z,15.90
2022-09-30T19:52:22.304Z,15.15
2022-09-30T19:57:25.640Z,13.93
2022-09-30T20:02:28.348Z,17.80
2022-09-30T20:07:30.984Z,18.33
2022-09-30T20:12:45.439Z,17.08
2022-09-30T20:17:50.312Z,15.00
2022-09-30T20:22:53.855Z,19.35
2022-09-30T20:27:56.460Z,14.60
2022-09-30T20:34:02.812Z,15.07
2022-09-30T20:39:10.785Z,13.73
2022-09-30T20:44:13.785Z,12.67
2022-09-30T20:49:18.248Z,11.60
2022-09-30T20:54:20.983Z,11.40
2022-09-30T20:59:26.310Z,10.67
2022-09-30T21:04:28.948Z,10.65
2022-09-30T21:09:36.672Z,10.32
2022-09-30T21:14:40.249Z,16.42
2022-09-30T21:19:43.501Z,11.02
2022-09-30T21:24:47.943Z,12.30
2022-09-30T21:29:50.500Z,18.63
2022-09-30T21:34:54.377Z,13.15
2022-09-30T21:39:57.821Z,19.77
2022-09-30T21:45:01.287Z,22.40
2022-09-30T21:50:15.554Z,25.77
2022-09-30T21:55:19.084Z,31.23
2022-09-30T22:00:22.284Z,28.03
2022-09-30T22:05:25.023Z,35.72
2022-09-30T22:10:27.656Z,35.08
2022-09-30T22:15:35.014Z,33.38
2022-09-30T22:20:37.652Z,34.57
2022-09-30T22:25:41.812Z,34.38
2022-09-30T22:30:46.181Z,29.33
2022-09-30T22:36:10.305Z,40.13
2022-09-30T22:41:16.449Z,44.03
2022-09-30T22:46:21.932Z,31.45
2022-09-30T22:51:25.643Z,34.17
2022-09-30T22:56:28.264Z,35.47
2022-09-30T23:01:40.479Z,33.47
2022-09-30T23:06:56.410Z,43.38
2022-09-30T23:12:01.985Z,28.30
2022-09-30T23:17:17.071Z,17.58
2022-09-30T23:22:20.011Z,14.63
2022-09-30T23:32:26.763Z,12.40
2022-09-30T23:37:40.960Z,14.35
2022-09-30T23:42:43.395Z,10.82
2022-09-30T23:47:48.625Z,13.40
2022-09-30T23:52:51.743Z,8.87
2022-09-30T23:57:57.630Z,8.68
